Algona, Iowa
Current Conditions -  °F | °C
As of 4:15 PM on Tuesday 21 Oct 2014 (Local Time) from KAXA Reporting Station
Clear Clear  
Wind Chill: 66°   Ceiling: Unl
Heat Index: 66°   Visibility: 10mi
Dew Point: 43°   Wind: 9mph
Humidity: 43%   Direction: 130°SE
Pressure: 30.1"   Gusts: 16mph
Location:  43.07°N, 94.23°W
Report Text: KAXA 212115Z AUTO 13008G14KT 10SM CLR 19/06 A3010 RMK AO2
Loading
Personal Weather Stations






























Interactive Weather Map
Tropical Storm Tracking
New forecast layout! Learn more

10-Day Weather Forecast

Advertisements
Track Severe Weather on mobile